createdAt,value
2022-08-28T00:01:58.958Z,99458.59
2022-08-28T00:07:03.042Z,99452.44
2022-08-28T00:12:06.817Z,99461.44
2022-08-28T00:17:09.492Z,99473.97
2022-08-28T00:22:13.495Z,99460.25
2022-08-28T00:27:35.926Z,99457.16
2022-08-28T00:32:38.593Z,99462.81
2022-08-28T00:37:42.631Z,99461.31
2022-08-28T00:42:46.747Z,99477.75
2022-08-28T00:47:49.972Z,99467.72
2022-08-28T00:52:57.810Z,99472.41
2022-08-28T00:58:01.110Z,99472.38
2022-08-28T01:03:05.071Z,99462.91
2022-08-28T01:08:09.187Z,99475.13
2022-08-28T01:13:14.862Z,99485.03
2022-08-28T01:18:17.824Z,99481.19
2022-08-28T01:23:28.251Z,99474.81
2022-08-28T01:28:32.324Z,99475.53
2022-08-28T01:33:35.012Z,99483.53
2022-08-28T01:38:38.495Z,99479.50
2022-08-28T01:43:43.380Z,99481.94
2022-08-28T01:48:46.546Z,99490.97
2022-08-28T01:53:49.236Z,99493.84
2022-08-28T01:58:53.820Z,99495.81
2022-08-28T02:03:56.487Z,99495.56
2022-08-28T02:08:59.457Z,99491.00
2022-08-28T02:14:03.641Z,99499.22
2022-08-28T02:19:06.668Z,99500.53
2022-08-28T02:24:09.472Z,99518.47
2022-08-28T02:29:13.724Z,99520.13
2022-08-28T02:34:16.441Z,99526.69
2022-08-28T02:39:19.266Z,99530.91
2022-08-28T02:44:23.313Z,99531.31
2022-08-28T02:49:25.958Z,99525.53
2022-08-28T02:54:34.562Z,99534.00
2022-08-28T02:59:38.977Z,99534.00
2022-08-28T03:04:41.666Z,99537.59
2022-08-28T03:09:44.553Z,99530.94
2022-08-28T03:14:48.591Z,99545.69
2022-08-28T03:19:51.767Z,99541.34
2022-08-28T03:24:54.468Z,99546.91
2022-08-28T03:29:59.115Z,99546.28
2022-08-28T03:35:01.846Z,99549.09
2022-08-28T03:40:05.570Z,99557.34
2022-08-28T03:45:11.652Z,99561.28
2022-08-28T03:50:14.570Z,99570.66
2022-08-28T03:55:18.846Z,99572.34
2022-08-28T04:00:22.875Z,99566.56
2022-08-28T04:05:25.532Z,99574.38
2022-08-28T04:10:28.321Z,99576.94
2022-08-28T04:15:32.332Z,99573.59
2022-08-28T04:20:35.033Z,99586.44
2022-08-28T04:25:40.905Z,99586.81
2022-08-28T04:30:44.973Z,99582.06
2022-08-28T04:35:47.668Z,99594.94
2022-08-28T04:40:50.644Z,99598.06
2022-08-28T04:45:54.700Z,99602.19
2022-08-28T04:50:58.098Z,99606.34
2022-08-28T04:56:01.352Z,99612.97
2022-08-28T05:01:08.497Z,99610.06
2022-08-28T05:06:14.070Z,99612.06
2022-08-28T05:11:33.314Z,99620.41
2022-08-28T05:16:44.034Z,99621.44
2022-08-28T05:21:47.115Z,99629.50
2022-08-28T05:26:49.757Z,99627.03
2022-08-28T05:31:53.958Z,99633.88
2022-08-28T05:36:56.878Z,99641.53
2022-08-28T05:41:59.547Z,99644.84
2022-08-28T05:47:03.663Z,99646.09
2022-08-28T05:52:06.366Z,99647.94
2022-08-28T05:57:09.041Z,99653.53
2022-08-28T06:02:13.116Z,99654.56
2022-08-28T06:07:16.224Z,99663.84
2022-08-28T06:12:18.955Z,99663.47
2022-08-28T06:17:23.940Z,99666.38
2022-08-28T06:22:26.720Z,99668.66
2022-08-28T06:27:31.098Z,99669.88
2022-08-28T06:32:35.115Z,99675.91
2022-08-28T06:37:37.839Z,99680.88
2022-08-28T06:42:40.953Z,99685.81
2022-08-28T06:47:45.105Z,99680.00
2022-08-28T06:52:47.865Z,99689.53
2022-08-28T06:57:50.542Z,99692.22
2022-08-28T07:02:54.679Z,99680.88
2022-08-28T07:07:57.449Z,99688.50
2022-08-28T07:13:00.799Z,99679.59
2022-08-28T07:18:04.954Z,99689.94
2022-08-28T07:23:08.401Z,99688.09
2022-08-28T07:28:11.061Z,99693.88
2022-08-28T07:33:15.158Z,99698.03
2022-08-28T07:38:17.911Z,99696.97
2022-08-28T07:43:38.421Z,99702.13
2022-08-28T07:48:43.021Z,99701.94
2022-08-28T07:53:45.767Z,99705.84
2022-08-28T07:58:49.296Z,99713.13
2022-08-28T08:03:57.730Z,99706.66
2022-08-28T08:09:06.579Z,99713.78
2022-08-28T08:14:09.329Z,99716.94
2022-08-28T08:19:14.893Z,99717.34
2022-08-28T08:24:20.880Z,99717.09
2022-08-28T08:29:24.367Z,99725.53
2022-08-28T08:34:28.540Z,99723.81
2022-08-28T08:39:31.810Z,99728.44
2022-08-28T08:44:40.099Z,99728.97
2022-08-28T08:49:49.330Z,99726.09
2022-08-28T08:55:03.398Z,99720.06
2022-08-28T09:00:12.270Z,99723.47
2022-08-28T09:05:21.675Z,99734.03
2022-08-28T09:10:25.962Z,99738.84
2022-08-28T09:15:31.588Z,99735.94
2022-08-28T09:20:35.698Z,99739.84
2022-08-28T09:25:55.952Z,99736.16
2022-08-28T09:31:04.789Z,99745.97
2022-08-28T09:36:24.945Z,99740.88
2022-08-28T09:41:44.505Z,99744.25
2022-08-28T09:46:48.737Z,99754.59
2022-08-28T09:51:52.990Z,99740.50
2022-08-28T09:56:55.955Z,99742.53
2022-08-28T10:02:11.377Z,99741.06
2022-08-28T10:07:20.987Z,99726.69
2022-08-28T10:12:34.573Z,99739.66
2022-08-28T10:17:45.893Z,99728.81
2022-08-28T10:22:55.576Z,99719.59
2022-08-28T10:28:10.795Z,99732.50
2022-08-28T10:33:25.026Z,99731.50
2022-08-28T10:38:36.506Z,99735.72
2022-08-28T10:43:43.232Z,99739.75
2022-08-28T10:48:48.748Z,99729.75
2022-08-28T10:53:55.971Z,99740.13
2022-08-28T10:58:59.825Z,99734.25
2022-08-28T11:04:04.810Z,99734.34
2022-08-28T11:09:26.913Z,99734.81
2022-08-28T11:14:33.762Z,99738.03
2022-08-28T11:19:53.331Z,99733.56
2022-08-28T11:25:06.446Z,99738.31
2022-08-28T11:30:32.814Z,99740.34
2022-08-28T11:35:43.032Z,99743.44
2022-08-28T11:40:57.981Z,99744.69
2022-08-28T11:46:13.423Z,99744.25
2022-08-28T11:51:37.393Z,99737.88
2022-08-28T11:56:45.997Z,99740.09
2022-08-28T12:01:49.256Z,99739.28
2022-08-28T12:06:55.303Z,99733.19
2022-08-28T12:12:12.760Z,99733.19
2022-08-28T12:17:20.219Z,99734.66
2022-08-28T12:22:25.120Z,99730.81
2022-08-28T12:27:29.328Z,99740.19
2022-08-28T12:32:37.425Z,99726.63
2022-08-28T12:37:52.159Z,99706.19
2022-08-28T12:43:00.111Z,99718.97
2022-08-28T12:48:06.795Z,99712.22
2022-08-28T12:53:13.444Z,99722.31
2022-08-28T12:58:33.880Z,99720.88
2022-08-28T13:03:46.405Z,99718.22
2022-08-28T13:08:49.735Z,99711.91
2022-08-28T13:13:54.445Z,99710.59
2022-08-28T13:19:13.037Z,99699.16
2022-08-28T13:24:27.137Z,99701.97
2022-08-28T13:29:31.522Z,99704.13
2022-08-28T13:34:35.767Z,99702.63
2022-08-28T13:39:38.607Z,99693.00
2022-08-28T13:44:48.506Z,99692.94
2022-08-28T13:49:51.197Z,99684.63
2022-08-28T13:54:53.973Z,99686.03
2022-08-28T13:59:57.997Z,99677.06
2022-08-28T14:05:01.589Z,99674.97
2022-08-28T14:10:05.310Z,99673.69
2022-08-28T14:15:10.060Z,99671.00
2022-08-28T14:20:13.960Z,99661.59
2022-08-28T14:25:16.957Z,99667.00
2022-08-28T14:30:21.062Z,99671.66
2022-08-28T14:35:24.231Z,99668.53
2022-08-28T14:40:26.980Z,99659.25
2022-08-28T14:45:31.119Z,99663.03
2022-08-28T14:50:33.900Z,99652.56
2022-08-28T14:55:40.747Z,99661.13
2022-08-28T15:00:46.683Z,99654.88
2022-08-28T15:06:00.794Z,99660.03
2022-08-28T15:11:06.627Z,99661.91
2022-08-28T15:16:16.010Z,99661.75
2022-08-28T15:21:21.518Z,99664.16
2022-08-28T15:26:25.754Z,99655.69
2022-08-28T15:31:30.497Z,99659.34
2022-08-28T15:36:33.647Z,99654.16
2022-08-28T15:41:38.461Z,99653.94
2022-08-28T15:46:42.793Z,99665.13
2022-08-28T15:51:45.428Z,99650.78
2022-08-28T15:56:50.684Z,99657.59
2022-08-28T16:01:56.899Z,99652.31
2022-08-28T16:07:00.858Z,99651.59
2022-08-28T16:12:04.036Z,99650.16
2022-08-28T16:17:11.159Z,99642.19
2022-08-28T16:22:15.831Z,99655.25
2022-08-28T16:27:18.761Z,99648.00
2022-08-28T16:32:23.201Z,99647.75
2022-08-28T16:37:27.092Z,99642.94
2022-08-28T16:42:51.734Z,99651.97
2022-08-28T16:47:56.244Z,99649.16
2022-08-28T16:53:02.437Z,99641.88
2022-08-28T16:58:08.017Z,99650.84
2022-08-28T17:03:11.997Z,99647.28
2022-08-28T17:08:14.994Z,99650.38
2022-08-28T17:13:17.736Z,99652.69
2022-08-28T17:18:21.757Z,99643.28
2022-08-28T17:23:24.461Z,99642.94
2022-08-28T17:28:28.481Z,99651.66
2022-08-28T17:33:34.487Z,99661.72
2022-08-28T17:38:37.260Z,99648.34
2022-08-28T17:43:39.979Z,99661.69
2022-08-28T17:48:54.311Z,99652.34
2022-08-28T17:53:58.677Z,99660.66
2022-08-28T17:59:01.358Z,99671.78
2022-08-28T18:04:06.085Z,99666.97
2022-08-28T18:09:09.932Z,99665.41
2022-08-28T18:14:12.571Z,99677.16
2022-08-28T18:19:17.195Z,99671.00
2022-08-28T18:24:19.918Z,99676.53
2022-08-28T18:29:22.628Z,99689.09
2022-08-28T18:34:29.683Z,99684.28
2022-08-28T18:39:32.477Z,99685.78
2022-08-28T18:44:35.770Z,99693.91
2022-08-28T18:49:40.889Z,99703.50
2022-08-28T18:54:43.554Z,99709.31
2022-08-28T18:59:48.907Z,99709.63
2022-08-28T19:04:53.164Z,99725.22
2022-08-28T19:09:57.177Z,99734.41
2022-08-28T19:15:00.388Z,99733.56
2022-08-28T19:20:06.588Z,99744.81
2022-08-28T19:25:13.328Z,99743.34
2022-08-28T19:30:34.249Z,99746.19
2022-08-28T19:35:38.394Z,99751.13
2022-08-28T19:40:41.092Z,99748.75
2022-08-28T19:45:45.402Z,99750.41
2022-08-28T19:50:49.650Z,99752.50
2022-08-28T19:55:53.252Z,99763.16
2022-08-28T20:00:55.904Z,99767.00
2022-08-28T20:06:03.611Z,99764.06
2022-08-28T20:11:06.313Z,99777.94
2022-08-28T20:16:09.163Z,99784.94
2022-08-28T20:21:14.250Z,99797.53
2022-08-28T20:26:17.005Z,99786.53
2022-08-28T20:31:20.535Z,99784.78
2022-08-28T20:36:27.029Z,99784.59
2022-08-28T20:41:29.749Z,99795.78
2022-08-28T20:46:42.150Z,99791.59
2022-08-28T20:51:57.439Z,99799.69
2022-08-28T20:57:02.887Z,99798.03
2022-08-28T21:02:06.827Z,99803.91
2022-08-28T21:07:11.389Z,99815.09
2022-08-28T21:12:15.181Z,99816.84
2022-08-28T21:17:18.365Z,99814.69
2022-08-28T21:22:36.041Z,99823.09
2022-08-28T21:27:39.462Z,99821.94
2022-08-28T21:32:42.682Z,99824.72
2022-08-28T21:37:49.888Z,99823.47
2022-08-28T21:42:52.563Z,99829.59
2022-08-28T21:47:55.424Z,99828.28
2022-08-28T21:52:59.461Z,99834.94
2022-08-28T21:58:02.163Z,99828.97
2022-08-28T22:03:05.945Z,99827.13
2022-08-28T22:08:10.754Z,99828.13
2022-08-28T22:13:14.476Z,99842.56
2022-08-28T22:18:17.238Z,99834.34
2022-08-28T22:23:21.388Z,99829.25
2022-08-28T22:28:24.050Z,99832.56
2022-08-28T22:33:27.218Z,99835.63
2022-08-28T22:38:31.398Z,99836.59
2022-08-28T22:43:34.314Z,99832.47
2022-08-28T22:48:37.047Z,99832.84
2022-08-28T22:53:42.305Z,99827.53
2022-08-28T22:58:45.239Z,99821.81
2022-08-28T23:03:48.845Z,99820.44
2022-08-28T23:08:53.135Z,99819.25
2022-08-28T23:13:55.779Z,99816.91
2022-08-28T23:19:13.818Z,99816.13
2022-08-28T23:24:18.421Z,99808.47
2022-08-28T23:29:21.206Z,99808.44
2022-08-28T23:34:24.044Z,99805.97
2022-08-28T23:39:28.385Z,99799.34
2022-08-28T23:44:31.388Z,99807.00
2022-08-28T23:49:35.028Z,99814.03
2022-08-28T23:54:47.287Z,99815.47
2022-08-28T23:59:49.945Z,99815.63
